createdAt,value
2022-08-06T00:00:03.349Z,100121.72
2022-08-06T00:02:51.489Z,100119.94
2022-08-06T00:05:53.765Z,100123.09
2022-08-06T00:08:55.696Z,100128.16
2022-08-06T00:12:10.659Z,100115.84
2022-08-06T00:15:14.764Z,100120.09
2022-08-06T00:18:16.778Z,100119.50
2022-08-06T00:21:40.874Z,100123.97
2022-08-06T00:24:42.141Z,100122.66
2022-08-06T00:27:44.287Z,100117.31
2022-08-06T00:30:54.410Z,100110.19
2022-08-06T00:34:02.801Z,100114.00
2022-08-06T00:37:04.696Z,100125.25
2022-08-06T00:40:07.134Z,100130.72
2022-08-06T00:43:09.688Z,100128.78
2022-08-06T00:46:16.755Z,100128.13
2022-08-06T00:49:48.358Z,100130.88
2022-08-06T00:52:40.637Z,100124.53
2022-08-06T00:55:59.837Z,100135.22
2022-08-06T00:59:05.452Z,100137.19
2022-08-06T01:02:14.443Z,100137.25
2022-08-06T01:05:34.074Z,100137.41
2022-08-06T01:08:41.551Z,100120.12
2022-08-06T01:11:43.801Z,100126.19
2022-08-06T01:15:02.170Z,100127.25
2022-08-06T01:18:11.421Z,100127.22
2022-08-06T01:21:59.226Z,100134.44
2022-08-06T01:25:04.100Z,100128.37
2022-08-06T01:28:08.346Z,100125.81
2022-08-06T01:31:16.154Z,100127.81
2022-08-06T01:34:35.071Z,100128.13
2022-08-06T01:38:06.855Z,100131.06
2022-08-06T01:41:55.099Z,100136.44
2022-08-06T01:45:03.150Z,100142.00
2022-08-06T01:48:11.107Z,100139.75
2022-08-06T01:51:17.176Z,100132.63
2022-08-06T01:54:24.992Z,100129.50
2022-08-06T01:58:07.741Z,100128.25
2022-08-06T02:01:01.201Z,100131.97
2022-08-06T02:04:04.749Z,100141.41
2022-08-06T02:08:04.118Z,100135.22
2022-08-06T02:10:35.366Z,100138.47
2022-08-06T02:13:43.402Z,100135.19
2022-08-06T02:16:50.724Z,100131.25
2022-08-06T02:20:11.397Z,100132.06
2022-08-06T02:23:17.752Z,100129.69
2022-08-06T02:26:25.209Z,100132.31
2022-08-06T02:29:47.306Z,100129.50
2022-08-06T02:32:50.592Z,100125.50
2022-08-06T02:36:02.293Z,100128.37
2022-08-06T02:39:17.228Z,100123.69
2022-08-06T02:42:43.953Z,100121.75
2022-08-06T02:45:59.399Z,100113.47
2022-08-06T02:49:05.717Z,100114.41
2022-08-06T02:52:37.204Z,100118.81
2022-08-06T02:55:45.861Z,100118.69
2022-08-06T02:58:56.950Z,100122.28
2022-08-06T03:02:05.349Z,100119.78
2022-08-06T03:05:08.077Z,100118.34
2022-08-06T03:08:15.786Z,100121.72
2022-08-06T03:11:19.339Z,100124.63
2022-08-06T03:15:03.356Z,100124.38
2022-08-06T03:17:48.040Z,100116.69
2022-08-06T03:20:52.802Z,100123.62
2022-08-06T03:23:55.816Z,100134.50
2022-08-06T03:27:02.054Z,100131.06
2022-08-06T03:30:04.669Z,100128.31
2022-08-06T03:33:29.789Z,100136.28
2022-08-06T03:36:36.469Z,100129.31
2022-08-06T03:39:47.331Z,100131.75
2022-08-06T03:42:55.887Z,100131.69
2022-08-06T03:46:03.444Z,100128.22
2022-08-06T03:49:07.213Z,100132.59
2022-08-06T03:52:14.771Z,100135.28
2022-08-06T03:55:23.898Z,100131.53
2022-08-06T03:58:33.070Z,100127.16
2022-08-06T04:01:43.326Z,100133.19
2022-08-06T04:04:52.558Z,100141.16
2022-08-06T04:07:58.013Z,100137.59
2022-08-06T04:11:01.520Z,100141.81
2022-08-06T04:14:07.643Z,100142.69
2022-08-06T04:17:10.666Z,100149.53
2022-08-06T04:20:16.447Z,100147.91
2022-08-06T04:23:38.009Z,100148.53
2022-08-06T04:26:43.731Z,100154.63
2022-08-06T04:29:56.405Z,100154.47
2022-08-06T04:33:03.695Z,100159.22
2022-08-06T04:36:23.750Z,100163.53
2022-08-06T04:39:38.349Z,100165.97
2022-08-06T04:42:51.399Z,100163.97
2022-08-06T04:46:16.569Z,100169.84
2022-08-06T04:49:19.010Z,100171.38
2022-08-06T04:52:35.440Z,100169.47
2022-08-06T04:55:41.141Z,100168.44
2022-08-06T04:58:42.773Z,100166.94
2022-08-06T05:01:57.174Z,100166.78
2022-08-06T05:05:02.774Z,100161.50
2022-08-06T05:08:06.794Z,100162.87
2022-08-06T05:11:26.042Z,100165.94
2022-08-06T05:14:38.202Z,100164.59
2022-08-06T05:17:48.510Z,100171.34
2022-08-06T05:20:54.344Z,100157.62
2022-08-06T05:23:57.789Z,100160.59
2022-08-06T05:26:59.809Z,100164.53
2022-08-06T05:30:05.348Z,100162.31
2022-08-06T05:33:07.341Z,100160.22
2022-08-06T05:36:19.333Z,100167.47
2022-08-06T05:39:56.872Z,100164.16
2022-08-06T05:42:43.589Z,100165.13
2022-08-06T05:46:05.787Z,100162.06
2022-08-06T05:49:55.602Z,100158.16
2022-08-06T05:52:56.278Z,100170.78
2022-08-06T05:56:05.746Z,100158.50
2022-08-06T05:59:37.374Z,100160.38
2022-08-06T06:02:44.363Z,100157.66
2022-08-06T06:06:04.937Z,100168.94
2022-08-06T06:09:10.903Z,100165.09
2022-08-06T06:12:13.728Z,100170.84
2022-08-06T06:16:00.488Z,100165.91
2022-08-06T06:19:10.763Z,100173.63
2022-08-06T06:22:27.410Z,100175.16
2022-08-06T06:25:43.457Z,100168.81
2022-08-06T06:29:11.274Z,100171.25
2022-08-06T06:32:30.333Z,100167.06
2022-08-06T06:35:42.634Z,100166.13
2022-08-06T06:39:19.794Z,100178.91
2022-08-06T06:42:33.471Z,100179.53
2022-08-06T06:46:07.648Z,100185.22
2022-08-06T06:49:59.825Z,100178.22
2022-08-06T06:53:04.789Z,100175.66
2022-08-06T06:56:17.956Z,100178.00
2022-08-06T07:00:00.995Z,100178.47
2022-08-06T07:02:54.168Z,100176.94
2022-08-06T07:06:04.080Z,100175.44
2022-08-06T07:09:14.999Z,100171.19
2022-08-06T07:12:20.703Z,100173.63
2022-08-06T07:15:24.596Z,100175.38
2022-08-06T07:18:32.525Z,100166.25
2022-08-06T07:21:37.987Z,100166.91
2022-08-06T07:24:46.820Z,100170.75
2022-08-06T07:27:55.408Z,100176.22
2022-08-06T07:31:09.242Z,100174.38
2022-08-06T07:34:11.918Z,100176.59
2022-08-06T07:37:22.376Z,100178.88
2022-08-06T07:40:31.793Z,100171.59
2022-08-06T07:43:44.781Z,100165.72
2022-08-06T07:46:56.962Z,100167.72
2022-08-06T07:50:01.862Z,100171.09
2022-08-06T07:53:04.587Z,100170.69
2022-08-06T07:56:09.788Z,100169.75
2022-08-06T07:59:14.886Z,100169.53
2022-08-06T08:02:17.889Z,100164.16
2022-08-06T08:06:00.378Z,100165.94
2022-08-06T08:09:28.892Z,100169.81
2022-08-06T08:12:39.014Z,100173.63
2022-08-06T08:15:43.672Z,100174.22
2022-08-06T08:18:45.644Z,100176.47
2022-08-06T08:21:47.321Z,100172.19
2022-08-06T08:24:53.912Z,100177.25
2022-08-06T08:27:56.834Z,100179.59
2022-08-06T08:31:11.096Z,100181.22
2022-08-06T08:34:27.306Z,100182.50
2022-08-06T08:37:31.794Z,100188.12
2022-08-06T08:40:36.249Z,100188.59
2022-08-06T08:43:59.992Z,100192.66
2022-08-06T08:47:12.478Z,100192.13
2022-08-06T08:50:18.489Z,100177.09
2022-08-06T08:53:45.463Z,100184.25
2022-08-06T08:57:08.282Z,100178.81
2022-08-06T09:00:12.549Z,100179.78
2022-08-06T09:03:24.581Z,100184.38
2022-08-06T09:06:28.934Z,100186.03
2022-08-06T09:09:36.112Z,100188.69
2022-08-06T09:12:44.839Z,100189.53
2022-08-06T09:15:49.313Z,100189.22
2022-08-06T09:18:54.480Z,100185.63
2022-08-06T09:21:57.960Z,100190.13
2022-08-06T09:25:07.666Z,100185.22
2022-08-06T09:28:12.138Z,100196.19
2022-08-06T09:31:31.215Z,100184.81
2022-08-06T09:34:41.120Z,100192.63
2022-08-06T09:37:53.365Z,100184.44
2022-08-06T09:41:14.983Z,100183.69
2022-08-06T09:44:37.804Z,100193.47
2022-08-06T09:47:40.508Z,100191.72
2022-08-06T09:50:44.873Z,100194.25
2022-08-06T09:54:05.844Z,100191.84
2022-08-06T09:57:16.463Z,100182.66
2022-08-06T10:00:30.611Z,100182.75
2022-08-06T10:04:02.087Z,100178.38
2022-08-06T10:07:08.048Z,100177.81
2022-08-06T10:10:10.238Z,100180.91
2022-08-06T10:13:39.194Z,100178.41
2022-08-06T10:17:14.059Z,100177.72
2022-08-06T10:20:19.178Z,100177.41
2022-08-06T10:23:21.512Z,100182.03
2022-08-06T10:26:27.849Z,100167.53
2022-08-06T10:29:34.030Z,100167.75
2022-08-06T10:32:52.820Z,100170.28
2022-08-06T10:36:04.048Z,100164.97
2022-08-06T10:40:07.893Z,100175.06
2022-08-06T10:42:30.281Z,100164.09
2022-08-06T10:45:48.614Z,100164.06
2022-08-06T10:50:19.905Z,100171.22
2022-08-06T10:52:17.302Z,100169.63
2022-08-06T10:55:19.022Z,100157.62
2022-08-06T10:58:23.074Z,100156.94
2022-08-06T11:01:55.716Z,100153.47
2022-08-06T11:05:00.494Z,100157.62
2022-08-06T11:08:40.906Z,100156.00
2022-08-06T11:12:17.190Z,100151.59
2022-08-06T11:15:22.553Z,100152.53
2022-08-06T11:18:28.279Z,100144.78
2022-08-06T11:22:02.741Z,100133.34
2022-08-06T11:25:26.345Z,100138.00
2022-08-06T11:28:32.214Z,100135.00
2022-08-06T11:31:44.394Z,100132.84
2022-08-06T11:34:58.374Z,100132.63
2022-08-06T11:38:25.162Z,100123.62
2022-08-06T11:41:54.548Z,100120.03
2022-08-06T11:45:06.251Z,100118.78
2022-08-06T11:48:26.830Z,100118.37
2022-08-06T11:52:06.370Z,100114.56
2022-08-06T11:55:23.141Z,100118.34
2022-08-06T11:58:25.772Z,100115.66
2022-08-06T12:01:47.883Z,100113.72
2022-08-06T12:04:50.755Z,100111.66
2022-08-06T12:08:38.494Z,100109.94
2022-08-06T12:11:38.632Z,100103.53
2022-08-06T12:14:49.195Z,100107.12
2022-08-06T12:18:19.826Z,100096.97
2022-08-06T12:21:18.950Z,100095.13
2022-08-06T12:24:24.890Z,100100.97
2022-08-06T12:27:35.574Z,100084.75
2022-08-06T12:30:52.085Z,100090.59
2022-08-06T12:33:55.585Z,100085.41
2022-08-06T12:37:00.155Z,100090.50
2022-08-06T12:40:22.385Z,100085.75
2022-08-06T12:43:43.205Z,100084.69
2022-08-06T12:46:47.247Z,100083.34
2022-08-06T12:49:55.789Z,100084.19
2022-08-06T12:53:15.402Z,100080.44
2022-08-06T12:56:31.390Z,100083.06
2022-08-06T12:59:40.347Z,100078.59
2022-08-06T13:02:48.272Z,100075.78
2022-08-06T13:05:52.955Z,100072.88
2022-08-06T13:09:02.054Z,100069.12
2022-08-06T13:12:29.081Z,100074.44
2022-08-06T13:15:46.341Z,100076.50
2022-08-06T13:19:15.959Z,100078.41
2022-08-06T13:22:23.051Z,100088.84
2022-08-06T13:25:48.716Z,100084.28
2022-08-06T13:30:31.465Z,100079.81
2022-08-06T13:32:34.073Z,100069.94
2022-08-06T13:35:38.860Z,100064.53
2022-08-06T13:38:41.942Z,100067.37
2022-08-06T13:41:56.077Z,100063.56
2022-08-06T13:44:58.895Z,100061.44
2022-08-06T13:48:17.536Z,100067.69
2022-08-06T13:51:27.904Z,100071.59
2022-08-06T13:54:36.075Z,100064.37
2022-08-06T13:57:44.080Z,100061.97
2022-08-06T14:00:47.734Z,100066.41
2022-08-06T14:03:50.838Z,100057.69
2022-08-06T14:06:54.352Z,100070.13
2022-08-06T14:10:07.632Z,100061.56
2022-08-06T14:13:17.897Z,100060.75
2022-08-06T14:16:22.659Z,100064.88
2022-08-06T14:20:17.087Z,100061.78
2022-08-06T14:22:49.838Z,100054.25
2022-08-06T14:25:52.547Z,100057.06
2022-08-06T14:30:25.889Z,100047.28
2022-08-06T14:32:26.807Z,100054.53
2022-08-06T14:35:29.328Z,100061.44
2022-08-06T14:38:42.545Z,100054.41
2022-08-06T14:42:03.375Z,100043.47
2022-08-06T14:45:07.612Z,100047.91
2022-08-06T14:48:09.655Z,100058.13
2022-08-06T14:51:12.739Z,100061.44
2022-08-06T14:54:16.130Z,100050.81
2022-08-06T14:57:19.986Z,100052.62
2022-08-06T15:00:41.639Z,100052.78
2022-08-06T15:03:45.741Z,100059.66
2022-08-06T15:06:53.743Z,100071.34
2022-08-06T15:10:04.021Z,100069.19
2022-08-06T15:13:08.571Z,100065.78
2022-08-06T15:16:40.642Z,100075.03
2022-08-06T15:19:41.734Z,100072.72
2022-08-06T15:22:46.120Z,100077.34
2022-08-06T15:26:02.136Z,100081.31
2022-08-06T15:29:16.622Z,100082.69
2022-08-06T15:32:18.803Z,100079.34
2022-08-06T15:35:21.249Z,100081.81
2022-08-06T15:38:33.716Z,100092.84
2022-08-06T15:41:42.910Z,100094.25
2022-08-06T15:44:45.341Z,100110.66
2022-08-06T15:47:48.810Z,100099.66
2022-08-06T15:51:28.282Z,100104.87
2022-08-06T15:54:13.583Z,100116.69
2022-08-06T15:57:19.977Z,100125.13
2022-08-06T16:00:58.335Z,100128.66
2022-08-06T16:04:02.567Z,100116.88
2022-08-06T16:07:08.291Z,100129.97
2022-08-06T16:10:11.229Z,100141.66
2022-08-06T16:13:27.413Z,100149.41
2022-08-06T16:16:32.455Z,100157.06
2022-08-06T16:19:49.340Z,100160.03
2022-08-06T16:22:53.119Z,100158.97
2022-08-06T16:26:09.515Z,100159.28
2022-08-06T16:29:17.672Z,100163.28
2022-08-06T16:32:26.322Z,100169.13
2022-08-06T16:35:28.868Z,100174.53
2022-08-06T16:38:34.998Z,100174.62
2022-08-06T16:41:58.732Z,100173.78
2022-08-06T16:45:02.598Z,100177.00
2022-08-06T16:48:25.084Z,100184.50
2022-08-06T16:52:42.825Z,100179.41
2022-08-06T16:54:55.485Z,100197.16
2022-08-06T16:58:01.399Z,100204.22
2022-08-06T17:02:15.327Z,100204.50
2022-08-06T17:04:32.457Z,100222.03
2022-08-06T17:07:40.245Z,100222.53
2022-08-06T17:10:44.622Z,100229.16
2022-08-06T17:14:00.434Z,100221.50
2022-08-06T17:17:07.238Z,100234.50
2022-08-06T17:20:14.545Z,100235.25
2022-08-06T17:23:18.805Z,100236.25
2022-08-06T17:26:34.598Z,100244.59
2022-08-06T17:29:46.359Z,100252.22
2022-08-06T17:32:54.238Z,100256.97
2022-08-06T17:36:32.326Z,100257.06
2022-08-06T17:39:26.164Z,100262.44
2022-08-06T17:42:40.883Z,100270.81
2022-08-06T17:45:52.285Z,100270.28
2022-08-06T17:49:07.446Z,100270.50
2022-08-06T17:52:10.304Z,100270.59
2022-08-06T17:55:12.853Z,100266.41
2022-08-06T17:58:37.833Z,100283.81
2022-08-06T18:01:44.150Z,100282.84
2022-08-06T18:04:46.943Z,100281.03
2022-08-06T18:08:10.991Z,100279.91
2022-08-06T18:11:13.823Z,100297.09
2022-08-06T18:14:32.145Z,100291.72
2022-08-06T18:17:59.461Z,100301.47
2022-08-06T18:20:56.525Z,100310.22
2022-08-06T18:24:00.683Z,100309.97
2022-08-06T18:27:09.371Z,100315.22
2022-08-06T18:30:30.321Z,100315.91
2022-08-06T18:33:42.744Z,100314.22
2022-08-06T18:36:49.953Z,100326.25
2022-08-06T18:40:18.824Z,100329.50
2022-08-06T18:43:13.661Z,100326.53
2022-08-06T18:46:56.659Z,100337.75
2022-08-06T18:49:51.016Z,100342.94
2022-08-06T18:52:55.505Z,100347.22
2022-08-06T18:56:04.454Z,100354.12
2022-08-06T18:59:22.727Z,100356.47
2022-08-06T19:02:32.225Z,100366.56
2022-08-06T19:05:40.564Z,100368.87
2022-08-06T19:08:46.277Z,100374.91
2022-08-06T19:11:50.959Z,100380.13
2022-08-06T19:14:54.306Z,100391.53
2022-08-06T19:18:14.245Z,100376.69
2022-08-06T19:21:19.010Z,100379.81
2022-08-06T19:24:35.222Z,100389.16
2022-08-06T19:28:29.904Z,100395.12
2022-08-06T19:31:04.115Z,100390.34
2022-08-06T19:34:08.918Z,100392.28
2022-08-06T19:37:22.320Z,100398.72
2022-08-06T19:40:52.743Z,100406.37
2022-08-06T19:44:24.885Z,100402.13
2022-08-06T19:47:21.766Z,100401.78
2022-08-06T19:50:24.161Z,100405.50
2022-08-06T19:53:31.654Z,100409.41
2022-08-06T19:56:35.097Z,100409.22
2022-08-06T20:00:55.487Z,100413.34
2022-08-06T20:03:00.384Z,100404.75
2022-08-06T20:06:21.777Z,100410.75
2022-08-06T20:09:58.816Z,100410.91
2022-08-06T20:12:51.669Z,100417.06
2022-08-06T20:15:53.925Z,100428.25
2022-08-06T20:18:56.159Z,100421.03
2022-08-06T20:21:58.276Z,100436.09
2022-08-06T20:25:00.162Z,100443.25
2022-08-06T20:29:07.060Z,100448.19
2022-08-06T20:31:42.821Z,100441.66
2022-08-06T20:34:48.349Z,100442.50
2022-08-06T20:37:52.655Z,100445.88
2022-08-06T20:41:57.041Z,100451.94
2022-08-06T20:44:20.216Z,100448.41
2022-08-06T20:47:46.306Z,100449.91
2022-08-06T20:50:47.122Z,100453.81
2022-08-06T20:53:56.222Z,100453.06
2022-08-06T20:57:03.949Z,100454.25
2022-08-06T21:00:17.612Z,100462.06
2022-08-06T21:05:10.882Z,100464.88
2022-08-06T21:06:43.028Z,100470.28
2022-08-06T21:09:46.311Z,100470.41
2022-08-06T21:12:58.887Z,100474.53
2022-08-06T21:16:09.914Z,100471.50
2022-08-06T21:19:16.334Z,100483.50
2022-08-06T21:22:20.667Z,100477.87
2022-08-06T21:25:39.731Z,100485.59
2022-08-06T21:28:52.156Z,100488.13
2022-08-06T21:31:57.572Z,100484.59
2022-08-06T21:34:59.706Z,100483.69
2022-08-06T21:38:01.938Z,100485.47
2022-08-06T21:41:30.037Z,100479.50
2022-08-06T21:44:49.546Z,100475.97
2022-08-06T21:47:55.165Z,100476.09
2022-08-06T21:50:59.574Z,100485.59
2022-08-06T21:54:03.283Z,100484.91
2022-08-06T21:57:11.674Z,100489.62
2022-08-06T22:00:38.047Z,100492.56
2022-08-06T22:04:38.023Z,100492.34
2022-08-06T22:07:03.129Z,100492.03
2022-08-06T22:10:06.458Z,100494.81
2022-08-06T22:13:13.270Z,100500.91
2022-08-06T22:16:18.348Z,100505.81
2022-08-06T22:19:39.202Z,100509.28
2022-08-06T22:22:41.221Z,100510.31
2022-08-06T22:25:44.853Z,100503.00
2022-08-06T22:28:47.166Z,100499.16
2022-08-06T22:31:56.130Z,100500.16
2022-08-06T22:34:59.578Z,100501.25
2022-08-06T22:38:16.943Z,100504.91
2022-08-06T22:41:21.600Z,100509.50
2022-08-06T22:45:47.729Z,100506.22
2022-08-06T22:48:08.073Z,100505.94
2022-08-06T22:51:15.906Z,100510.28
2022-08-06T22:54:25.840Z,100507.63
2022-08-06T22:57:37.597Z,100507.66
2022-08-06T23:00:57.864Z,100515.94
2022-08-06T23:04:00.195Z,100511.34
2022-08-06T23:07:09.211Z,100506.72
2022-08-06T23:10:13.292Z,100514.25
2022-08-06T23:13:23.851Z,100515.81
2022-08-06T23:16:28.320Z,100510.28
2022-08-06T23:19:30.451Z,100518.13
2022-08-06T23:22:38.024Z,100520.16
2022-08-06T23:25:59.477Z,100519.25
2022-08-06T23:29:08.811Z,100524.87
2022-08-06T23:32:10.955Z,100516.53
2022-08-06T23:35:36.212Z,100519.88
2022-08-06T23:38:39.986Z,100517.34
2022-08-06T23:42:00.519Z,100516.72
2022-08-06T23:45:04.633Z,100517.25
2022-08-06T23:48:06.725Z,100513.72
2022-08-06T23:51:08.781Z,100509.53
2022-08-06T23:54:15.818Z,100515.41
2022-08-06T23:57:48.008Z,100518.22
